Auburn, KS

3:24 AM CDT on October 01, 2014 (GMT -0500)
Forbes | Change Station
CLOSE
Current Station
Airport
Location: Topeka Forbes,
Elevation: 1079 ft
Nearby Weather Stations

Elev 1079 ft 38.95 °N, 95.66 °W | Updated 31 minutes ago

Overcast
Overcast
72 °F
Feels Like 72 °F
N
16
Wind Variable Wind from South
Gusts 24 mph

Today
High -- | Low -- °F
--% Chance of Precip.
Yesterday
High -- | Low -- °F
Precip. -- in
7:19 AM 7:05 PM
Waxing Crescent, 45% visible
Pressure 29.69 in
Visibility 10.0 miles
Clouds Overcast 7500 ft
Dew Point 61 °F
Humidity 68%
Rainfall 0.00 in
Snow Depth Not available.
UV 0 out of 12
Pollen 4.60 out of 12
Air Quality Not available.
Flu Activity Not available.
METAR KFOE 010753Z AUTO 17014G21KT 10SM OVC075 22/16 A2972 RMK AO2 LTG DSNT NW-NE SLP052 T02220161

More Conditions Fewer Conditions

Pressure 29.69 in
Visibility 10.0 miles
Clouds Overcast 7500 ft
Dew Point 61 °F
Humidity 68%
Rainfall 0.00 in
Snow Depth Not available.
UV 0 out of 12
Pollen 4.60 out of 12
Air Quality Not available.
Flu Activity Not available.
METAR KFOE 010753Z AUTO 17014G21KT 10SM OVC075 22/16 A2972 RMK AO2 LTG DSNT NW-NE SLP052 T02220161

More Conditions Fewer Conditions

10-Day Weather Forecast

Almanac

Astronomy

Oct. 01, 2014 Rise Set
Actual Time 7:19 AM CDT 7:05 PM CDT
Civil Twilight 6:52 AM CDT 7:32 PM CDT
Nautical Twilight 6:21 AM CDT 8:03 PM CDT
Astronomical Twilight 5:50 AM CDT 8:34 PM CDT
Moon 2:18 PM CDT No Moon Set
Length of Visible Light 12h 39m
Length of Day
11h 46m
Tomorrow will be 2m 30s shorter.
Waxing Crescent, 45% of the Moon is Illuminated
Today
Waxing Crescent
Oct 1
First Quarter
Oct 8
Full
Oct 15
Last Quarter
Oct 23
New

Today's Extremes

State Highs State Lows

Community

WunderPhotos

Upload Photos

1,757,902 photos uploaded!

Nearby

Snow Depth

Station Depth Elevation
No new snow has been reported.

Earthquake Activity

City Distance Mag. Time & Date
Parsons, Kansas 108 miles 3.0 7:33 PM CDT
2014-09-30
Minimum magnitude displayed is 2.5.

Coastal Water Temperatures

Place Temperature
No Stations Reporting

Nearby Weather Stations